Time;durP1;ratioP1;P1;durP2;ratioP2;P2;SDS_P1;SDS_P2;PMS_P1;PMS_P2;Temp;Humidity;BMP_temperature;BMP_pressure;BME280_temperature;BME280_humidity;BME280_pressure;Samples;Min_cycle;Max_cycle;Signal;HPM_P1;HPM_P2
2023/12/22 00:02:08;;;;;;;;;3.00;1.33;;;;;;;;5066869;28;28813;-83
2023/12/22 00:04:34;;;;;;;;;4.67;3.00;;;;;;;;5059007;28;28882;-83
2023/12/22 00:06:59;;;;;;;;;3.00;3.00;;;;;;;;5041612;28;29422;-83
2023/12/22 00:09:24;;;;;;;;;3.00;1.00;;;;;;;;5067939;28;29375;-81
2023/12/22 00:11:50;;;;;;;;;4.33;3.00;;;;;;;;5039059;28;28716;-82
2023/12/22 00:14:15;;;;;;;;;6.67;3.00;;;;;;;;5036950;28;29251;-83
2023/12/22 00:16:40;;;;;;;;;6.33;2.00;;;;;;;;5054926;28;28709;-82
2023/12/22 00:19:06;;;;;;;;;3.00;3.00;;;;;;;;5057651;28;29958;-82
2023/12/22 00:21:31;;;;;;;;;2.33;2.00;;;;;;;;5063872;28;29206;-83
2023/12/22 00:23:57;;;;;;;;;7.00;2.00;;;;;;;;5039205;28;28505;-84
2023/12/22 00:26:22;;;;;;;;;2.00;2.00;;;;;;;;5056573;28;28587;-82
2023/12/22 00:28:47;;;;;;;;;8.33;2.00;;;;;;;;5037364;28;30925;-84
2023/12/22 00:31:13;;;;;;;;;3.00;1.33;;;;;;;;5055961;28;28438;-81
2023/12/22 00:33:38;;;;;;;;;3.33;3.00;;;;;;;;5060643;28;28574;-83
2023/12/22 00:36:04;;;;;;;;;3.33;2.00;;;;;;;;5043869;28;29817;-84
2023/12/22 00:38:29;;;;;;;;;3.67;2.33;;;;;;;;5057375;28;30921;-83
2023/12/22 00:40:55;;;;;;;;;5.00;0.67;;;;;;;;5055435;28;28455;-83
2023/12/22 00:43:20;;;;;;;;;1.00;1.00;;;;;;;;5039140;28;28515;-85
2023/12/22 00:45:45;;;;;;;;;6.00;2.67;;;;;;;;5037455;28;28656;-82
2023/12/22 00:48:11;;;;;;;;;4.00;2.00;;;;;;;;5045956;28;29611;-83
2023/12/22 00:50:36;;;;;;;;;5.00;2.00;;;;;;;;5043293;28;29215;-84
2023/12/22 00:53:01;;;;;;;;;3.00;2.00;;;;;;;;5060016;28;28406;-83
2023/12/22 00:55:27;;;;;;;;;2.67;2.00;;;;;;;;5057413;28;28789;-83
2023/12/22 00:57:52;;;;;;;;;8.67;1.67;;;;;;;;5064228;28;30757;-82
2023/12/22 01:00:17;;;;;;;;;2.33;1.67;;;;;;;;5035436;28;29211;-83
2023/12/22 01:02:43;;;;;;;;;2.00;2.00;;;;;;;;5059990;28;28679;-81
2023/12/22 01:05:09;;;;;;;;;6.33;3.00;;;;;;;;5056297;28;29101;-81
2023/12/22 01:07:38;;;;;;;;;3.33;1.00;;;;;;;;5049394;28;28999;-84
2023/12/22 01:10:03;;;;;;;;;2.00;2.00;;;;;;;;5051184;28;27899;-83
2023/12/22 01:12:29;;;;;;;;;3.33;2.00;;;;;;;;5041203;28;28572;-82
2023/12/22 01:14:55;;;;;;;;;3.00;0.67;;;;;;;;5051298;28;29333;-76
2023/12/22 01:17:21;;;;;;;;;6.00;1.67;;;;;;;;5047538;28;30470;-76
2023/12/22 01:19:46;;;;;;;;;2.67;2.33;;;;;;;;5063513;28;28551;-77
2023/12/22 01:22:11;;;;;;;;;5.00;1.67;;;;;;;;5044995;28;28888;-76
2023/12/22 01:24:39;;;;;;;;;4.00;2.33;;;;;;;;5054173;28;28628;-75
2023/12/22 01:27:05;;;;;;;;;5.67;1.33;;;;;;;;5050587;28;28845;-77
2023/12/22 01:29:30;;;;;;;;;3.33;1.33;;;;;;;;5047513;28;28768;-78
2023/12/22 01:31:55;;;;;;;;;4.33;2.67;;;;;;;;5061757;28;28909;-78
2023/12/22 01:34:21;;;;;;;;;7.33;2.67;;;;;;;;5057547;28;29274;-77
2023/12/22 01:36:46;;;;;;;;;2.00;1.33;;;;;;;;5032701;28;30582;-77
2023/12/22 01:39:11;;;;;;;;;6.67;1.33;;;;;;;;5051589;28;28588;-76
2023/12/22 01:41:36;;;;;;;;;3.00;1.00;;;;;;;;5054954;28;28874;-75
2023/12/22 01:44:01;;;;;;;;;7.67;3.00;;;;;;;;5053638;28;28983;-77
2023/12/22 01:46:27;;;;;;;;;3.33;2.00;;;;;;;;5031570;28;30213;-77
2023/12/22 01:48:53;;;;;;;;;2.67;1.33;;;;;;;;5048491;28;28437;-77
2023/12/22 01:51:18;;;;;;;;;5.00;3.67;;;;;;;;5027823;28;28726;-76
2023/12/22 01:53:44;;;;;;;;;6.00;5.00;;;;;;;;5049005;28;28494;-77
2023/12/22 01:56:09;;;;;;;;;4.00;1.67;;;;;;;;5062392;28;29204;-75
2023/12/22 01:58:36;;;;;;;;;6.67;1.33;;;;;;;;5056144;28;28858;-77
2023/12/22 02:01:01;;;;;;;;;6.67;1.67;;;;;;;;5051979;28;28706;-80
2023/12/22 02:03:27;;;;;;;;;3.00;2.00;;;;;;;;5033628;28;29176;-84
2023/12/22 02:05:52;;;;;;;;;5.67;1.67;;;;;;;;5040214;28;29678;-82
2023/12/22 02:08:18;;;;;;;;;5.00;4.67;;;;;;;;5046837;28;28412;-83
2023/12/22 02:10:44;;;;;;;;;5.00;2.67;;;;;;;;5036179;28;28651;-82
2023/12/22 02:13:10;;;;;;;;;4.67;2.67;;;;;;;;5059557;28;28549;-82
2023/12/22 02:15:35;;;;;;;;;2.33;2.00;;;;;;;;5039344;28;29982;-82
2023/12/22 02:18:24;;;;;;;;;3.33;1.67;;;;;;;;5044886;28;28703;-81
2023/12/22 02:20:50;;;;;;;;;3.00;2.33;;;;;;;;5033970;28;28463;-81
2023/12/22 02:23:15;;;;;;;;;3.33;1.00;;;;;;;;5029188;28;29729;-81
2023/12/22 02:25:40;;;;;;;;;8.00;3.00;;;;;;;;5055738;28;28537;-82
2023/12/22 02:28:17;;;;;;;;;3.33;2.33;;;;;;;;5027078;28;28452;-81
2023/12/22 02:30:57;;;;;;;;;5.00;3.33;;;;;;;;5022267;28;28733;-84
2023/12/22 02:33:23;;;;;;;;;2.00;2.00;;;;;;;;5042747;28;29253;-82
2023/12/22 02:35:50;;;;;;;;;5.67;3.00;;;;;;;;5043468;28;28617;-82
2023/12/22 02:38:15;;;;;;;;;8.33;2.33;;;;;;;;5069500;28;28610;-83
2023/12/22 02:40:41;;;;;;;;;3.00;2.33;;;;;;;;5062246;28;28794;-82
2023/12/22 02:43:06;;;;;;;;;4.00;3.00;;;;;;;;5067865;28;29450;-83
2023/12/22 02:45:32;;;;;;;;;5.00;3.00;;;;;;;;5048842;28;29616;-81
2023/12/22 02:47:57;;;;;;;;;6.33;2.33;;;;;;;;5066800;28;28434;-83
2023/12/22 02:50:22;;;;;;;;;10.67;7.00;;;;;;;;5049566;28;28163;-82
2023/12/22 02:52:48;;;;;;;;;3.00;3.00;;;;;;;;5051769;28;29077;-81
2023/12/22 02:55:13;;;;;;;;;2.33;1.00;;;;;;;;5053467;28;29895;-82
2023/12/22 02:57:39;;;;;;;;;1.67;1.67;;;;;;;;5046422;28;28493;-80
2023/12/22 03:00:04;;;;;;;;;2.33;1.67;;;;;;;;5065529;28;28081;-80
2023/12/22 03:02:30;;;;;;;;;1.67;1.67;;;;;;;;5065274;28;29541;-82
2023/12/22 03:04:55;;;;;;;;;1.67;1.67;;;;;;;;5066355;28;28193;-83
2023/12/22 03:07:20;;;;;;;;;5.67;2.67;;;;;;;;5061165;28;28581;-82
2023/12/22 03:09:46;;;;;;;;;3.67;1.33;;;;;;;;5068242;28;28299;-81
2023/12/22 03:12:11;;;;;;;;;5.00;0.67;;;;;;;;5071638;28;28001;-82
2023/12/22 03:14:36;;;;;;;;;3.00;2.00;;;;;;;;5059407;28;30550;-80
2023/12/22 03:17:05;;;;;;;;;3.00;2.00;;;;;;;;5050836;28;28238;-79
2023/12/22 03:19:34;;;;;;;;;1.33;1.33;;;;;;;;5060567;28;28458;-80
2023/12/22 03:21:59;;;;;;;;;4.33;2.00;;;;;;;;5071424;28;29177;-82
2023/12/22 03:24:25;;;;;;;;;6.67;0.33;;;;;;;;5067811;28;28799;-81
2023/12/22 03:26:57;;;;;;;;;2.67;1.33;;;;;;;;5066848;28;28596;-80
2023/12/22 03:29:22;;;;;;;;;5.67;2.00;;;;;;;;5065518;28;28020;-80
2023/12/22 03:31:47;;;;;;;;;2.67;2.00;;;;;;;;5066934;28;29383;-82
2023/12/22 03:34:13;;;;;;;;;3.33;2.00;;;;;;;;5067027;28;28379;-81
2023/12/22 03:36:38;;;;;;;;;2.67;1.67;;;;;;;;5047885;28;27851;-81
2023/12/22 03:39:04;;;;;;;;;3.33;2.67;;;;;;;;5070395;28;28152;-82
2023/12/22 03:41:29;;;;;;;;;1.67;1.33;;;;;;;;5067612;28;29353;-81
2023/12/22 03:43:55;;;;;;;;;3.00;1.67;;;;;;;;5050411;28;29719;-79
2023/12/22 03:46:20;;;;;;;;;5.33;3.00;;;;;;;;5075985;28;27953;-78
2023/12/22 03:48:48;;;;;;;;;5.00;3.33;;;;;;;;5057350;28;28458;-81
2023/12/22 03:51:14;;;;;;;;;1.67;0.67;;;;;;;;5049173;28;28940;-81
2023/12/22 03:53:40;;;;;;;;;3.33;2.67;;;;;;;;5076588;28;29324;-81
2023/12/22 03:56:06;;;;;;;;;1.00;1.00;;;;;;;;5063558;28;27959;-80
2023/12/22 03:58:32;;;;;;;;;5.67;3.00;;;;;;;;5051397;28;28451;-80
2023/12/22 04:00:57;;;;;;;;;3.33;2.00;;;;;;;;5048307;28;29517;-79
2023/12/22 04:03:22;;;;;;;;;3.67;3.67;;;;;;;;5054862;28;29794;-79
2023/12/22 04:05:48;;;;;;;;;3.00;2.00;;;;;;;;5055979;28;28886;-81
2023/12/22 04:08:16;;;;;;;;;8.33;4.00;;;;;;;;5078052;28;28446;-81
2023/12/22 04:10:43;;;;;;;;;5.00;1.67;;;;;;;;5060458;28;28568;-79
2023/12/22 04:13:08;;;;;;;;;8.33;2.33;;;;;;;;5052209;28;28469;-75
2023/12/22 04:15:33;;;;;;;;;3.00;2.00;;;;;;;;5051311;28;28439;-78
2023/12/22 04:17:59;;;;;;;;;3.67;1.67;;;;;;;;5045608;28;28780;-77
2023/12/22 04:20:24;;;;;;;;;1.00;1.00;;;;;;;;5051903;28;28954;-76
2023/12/22 04:22:49;;;;;;;;;4.67;1.00;;;;;;;;5033411;28;29687;-78
2023/12/22 04:25:14;;;;;;;;;3.67;1.00;;;;;;;;5050965;28;29002;-79
2023/12/22 04:27:40;;;;;;;;;1.00;0.67;;;;;;;;5049769;28;28477;-74
2023/12/22 04:30:05;;;;;;;;;2.67;1.00;;;;;;;;5050016;28;28934;-77
2023/12/22 04:32:30;;;;;;;;;0.00;0.00;;;;;;;;5035443;28;29012;-78
2023/12/22 04:34:56;;;;;;;;;2.00;1.00;;;;;;;;5049302;28;28421;-76
2023/12/22 04:37:21;;;;;;;;;0.33;0.00;;;;;;;;5056729;28;28458;-76
2023/12/22 04:39:46;;;;;;;;;1.00;1.00;;;;;;;;5055502;28;28461;-77
2023/12/22 04:42:11;;;;;;;;;1.33;1.00;;;;;;;;5067713;28;28570;-77
2023/12/22 04:44:37;;;;;;;;;0.00;0.00;;;;;;;;5053331;28;28522;-78
2023/12/22 04:47:02;;;;;;;;;3.00;0.00;;;;;;;;5052230;28;28514;-78
2023/12/22 04:49:28;;;;;;;;;1.33;0.67;;;;;;;;5035971;28;29009;-76
2023/12/22 04:51:53;;;;;;;;;2.67;0.67;;;;;;;;5056254;28;30638;-80
2023/12/22 04:54:18;;;;;;;;;3.00;1.00;;;;;;;;5059901;28;28702;-80
2023/12/22 04:56:43;;;;;;;;;1.00;1.00;;;;;;;;5061322;28;28347;-81
2023/12/22 04:59:09;;;;;;;;;2.33;0.00;;;;;;;;5043804;28;29942;-81
2023/12/22 05:01:34;;;;;;;;;0.33;0.33;;;;;;;;5062763;28;28718;-82
2023/12/22 05:03:59;;;;;;;;;1.67;0.67;;;;;;;;5072955;28;28479;-81
2023/12/22 05:06:25;;;;;;;;;0.33;0.33;;;;;;;;5054982;28;28614;-81
2023/12/22 05:08:50;;;;;;;;;3.00;1.00;;;;;;;;5051153;28;28688;-80
2023/12/22 05:11:15;;;;;;;;;0.67;0.67;;;;;;;;5064251;28;29245;-81
2023/12/22 05:13:42;;;;;;;;;2.00;1.67;;;;;;;;5056510;28;28447;-79
2023/12/22 05:16:08;;;;;;;;;0.67;0.67;;;;;;;;5030100;28;28460;-81
2023/12/22 05:18:33;;;;;;;;;0.33;0.33;;;;;;;;5068342;28;29366;-81
2023/12/22 05:20:58;;;;;;;;;1.00;0.33;;;;;;;;5072152;28;30672;-81
2023/12/22 05:23:23;;;;;;;;;2.67;0.00;;;;;;;;5056948;28;28534;-81
2023/12/22 05:25:49;;;;;;;;;3.00;0.00;;;;;;;;5068958;28;28438;-80
2023/12/22 05:28:14;;;;;;;;;2.67;2.00;;;;;;;;5075083;28;28225;-81
2023/12/22 05:30:39;;;;;;;;;0.67;0.67;;;;;;;;5048411;28;30789;-82
2023/12/22 05:33:05;;;;;;;;;8.33;4.67;;;;;;;;5076289;28;27820;-81
2023/12/22 05:35:30;;;;;;;;;2.67;0.67;;;;;;;;5063124;28;28460;-76
2023/12/22 05:37:55;;;;;;;;;1.33;0.67;;;;;;;;5072905;28;28927;-76
2023/12/22 05:40:20;;;;;;;;;2.67;0.67;;;;;;;;5066467;28;29068;-79
2023/12/22 05:42:46;;;;;;;;;2.00;0.00;;;;;;;;5059775;28;28549;-78
2023/12/22 05:45:11;;;;;;;;;2.33;2.00;;;;;;;;5051960;28;28458;-78
2023/12/22 05:47:37;;;;;;;;;3.00;0.33;;;;;;;;5054347;28;28893;-76
2023/12/22 05:50:03;;;;;;;;;2.33;0.67;;;;;;;;5056321;28;28112;-78
2023/12/22 05:52:28;;;;;;;;;0.67;0.67;;;;;;;;5034064;28;29235;-76
2023/12/22 05:54:54;;;;;;;;;3.00;1.33;;;;;;;;5028383;28;28994;-77
2023/12/22 05:57:19;;;;;;;;;3.67;0.67;;;;;;;;5042656;28;30446;-76
2023/12/22 05:59:44;;;;;;;;;2.67;0.00;;;;;;;;5070789;28;28548;-76
2023/12/22 06:02:10;;;;;;;;;0.67;0.67;;;;;;;;5059662;28;28458;-79
2023/12/22 06:04:35;;;;;;;;;2.00;0.67;;;;;;;;5073019;28;28232;-80
2023/12/22 06:07:00;;;;;;;;;0.33;0.33;;;;;;;;5041254;28;29503;-79
2023/12/22 06:09:25;;;;;;;;;2.00;1.00;;;;;;;;5038382;28;29233;-76
2023/12/22 06:11:51;;;;;;;;;1.67;0.00;;;;;;;;5048546;28;28680;-77
2023/12/22 06:14:16;;;;;;;;;0.67;0.67;;;;;;;;5054546;28;28813;-77
2023/12/22 06:16:41;;;;;;;;;0.67;0.00;;;;;;;;5053146;28;28604;-77
2023/12/22 06:19:07;;;;;;;;;2.67;1.00;;;;;;;;5043142;28;29262;-78
2023/12/22 06:21:32;;;;;;;;;1.00;0.67;;;;;;;;5053871;28;29942;-75
2023/12/22 06:23:58;;;;;;;;;0.67;0.67;;;;;;;;5044077;28;28618;-80
2023/12/22 06:26:23;;;;;;;;;0.67;0.00;;;;;;;;5034644;28;29549;-72
2023/12/22 06:28:48;;;;;;;;;0.00;0.00;;;;;;;;5061441;28;30758;-72
2023/12/22 06:31:20;;;;;;;;;0.33;0.00;;;;;;;;5051638;28;28515;-73
2023/12/22 06:33:46;;;;;;;;;0.00;0.00;;;;;;;;5041357;28;28554;-73
2023/12/22 06:36:19;;;;;;;;;0.00;0.00;;;;;;;;5057605;28;28881;-72
2023/12/22 06:38:44;;;;;;;;;3.67;1.00;;;;;;;;5063371;28;29275;-77
2023/12/22 06:41:18;;;;;;;;;0.67;0.67;;;;;;;;5035613;28;29003;-76
2023/12/22 06:43:43;;;;;;;;;0.33;0.33;;;;;;;;5045048;28;28864;-76
2023/12/22 06:46:14;;;;;;;;;1.67;0.00;;;;;;;;5033582;28;28444;-75
2023/12/22 06:48:39;;;;;;;;;0.00;0.00;;;;;;;;5062302;28;28620;-75
2023/12/22 06:51:16;;;;;;;;;1.67;0.33;;;;;;;;5058700;28;28528;-76
2023/12/22 06:53:41;;;;;;;;;0.33;0.33;;;;;;;;5031879;28;28616;-76
2023/12/22 06:56:14;;;;;;;;;1.00;1.00;;;;;;;;5055748;28;28658;-75
2023/12/22 06:58:40;;;;;;;;;1.00;0.00;;;;;;;;5051064;28;28466;-77
2023/12/22 07:01:05;;;;;;;;;0.33;0.33;;;;;;;;5030860;28;29789;-75
2023/12/22 07:03:30;;;;;;;;;2.67;1.00;;;;;;;;5035270;28;29066;-76
2023/12/22 07:05:56;;;;;;;;;2.00;0.00;;;;;;;;5056555;28;28245;-80
2023/12/22 07:08:21;;;;;;;;;1.00;0.00;;;;;;;;5039294;28;29724;-80
2023/12/22 07:11:08;;;;;;;;;0.67;0.67;;;;;;;;5047132;28;29482;-82
2023/12/22 07:13:42;;;;;;;;;4.00;0.67;;;;;;;;5051253;28;28572;-78
2023/12/22 07:16:07;;;;;;;;;1.67;0.67;;;;;;;;5056301;28;28446;-82
2023/12/22 07:18:57;;;;;;;;;0.33;0.00;;;;;;;;5031715;28;28662;-81
2023/12/22 07:21:32;;;;;;;;;2.25;0.25;;;;;;;;5055217;28;28561;-81
2023/12/22 07:24:04;;;;;;;;;1.00;1.00;;;;;;;;5056040;28;28557;-81
2023/12/22 07:26:30;;;;;;;;;0.67;0.00;;;;;;;;5064769;28;28404;-80
2023/12/22 07:29:04;;;;;;;;;1.00;1.00;;;;;;;;5037624;28;29838;-81
2023/12/22 07:31:29;;;;;;;;;1.25;0.25;;;;;;;;5035400;28;29446;-78
2023/12/22 07:33:55;;;;;;;;;1.00;1.00;;;;;;;;5047745;28;28478;-82
2023/12/22 07:36:41;;;;;;;;;2.67;0.67;;;;;;;;5061857;28;28930;-81
2023/12/22 07:39:18;;;;;;;;;2.00;0.33;;;;;;;;5042162;28;28569;-83
2023/12/22 07:42:20;;;;;;;;;2.00;1.00;;;;;;;;5052679;28;28121;-84
2023/12/22 07:45:11;;;;;;;;;0.00;0.00;;;;;;;;5045399;28;28767;-87
2023/12/22 07:47:37;;;;;;;;;0.67;0.67;;;;;;;;5035796;28;29886;-81
2023/12/22 07:50:02;;;;;;;;;2.00;1.00;;;;;;;;5040006;28;28832;-81
2023/12/22 07:52:28;;;;;;;;;0.00;0.00;;;;;;;;5052716;28;30023;-84
2023/12/22 07:54:53;;;;;;;;;1.67;1.00;;;;;;;;5038964;28;28513;-81
2023/12/22 07:57:18;;;;;;;;;0.67;0.67;;;;;;;;5064417;28;28580;-82
2023/12/22 07:59:57;;;;;;;;;1.00;0.67;;;;;;;;5061363;28;29059;-88
2023/12/22 08:03:01;;;;;;;;;0.25;0.25;;;;;;;;5051318;28;28783;-83
2023/12/22 08:05:27;;;;;;;;;0.00;0.00;;;;;;;;4950951;28;28715;-82
2023/12/22 08:07:52;;;;;;;;;0.00;0.00;;;;;;;;4965231;28;28571;-81
2023/12/22 08:10:17;;;;;;;;;1.67;0.00;;;;;;;;4998702;28;28694;-81
2023/12/22 08:12:43;;;;;;;;;0.00;0.00;;;;;;;;5052893;28;28911;-81
2023/12/22 08:15:10;;;;;;;;;0.00;0.00;;;;;;;;5048845;28;28718;-82
2023/12/22 08:17:48;;;;;;;;;0.00;0.00;;;;;;;;5074156;28;27941;-83
2023/12/22 08:20:21;;;;;;;;;0.00;0.00;;;;;;;;5068800;28;28752;-81
2023/12/22 08:22:47;;;;;;;;;0.00;0.00;;;;;;;;5055251;28;28426;-82
2023/12/22 08:25:13;;;;;;;;;0.67;0.67;;;;;;;;5038904;28;28753;-82
2023/12/22 08:27:44;;;;;;;;;0.00;0.00;;;;;;;;5061218;28;29275;-82
2023/12/22 08:30:09;;;;;;;;;0.75;0.00;;;;;;;;5070097;28;28815;-82
2023/12/22 08:32:35;;;;;;;;;0.00;0.00;;;;;;;;5066750;28;28636;-81
2023/12/22 08:35:00;;;;;;;;;0.33;0.00;;;;;;;;5058135;28;28806;-82
2023/12/22 08:37:25;;;;;;;;;1.00;1.00;;;;;;;;5060587;28;29823;-82
2023/12/22 08:39:52;;;;;;;;;0.00;0.00;;;;;;;;5059498;28;28911;-86
2023/12/22 08:42:17;;;;;;;;;0.75;0.75;;;;;;;;5052697;28;28434;-83
2023/12/22 08:44:43;;;;;;;;;0.33;0.33;;;;;;;;5040228;28;28613;-81
2023/12/22 08:47:08;;;;;;;;;0.00;0.00;;;;;;;;5062333;28;28826;-82
2023/12/22 08:49:33;;;;;;;;;1.67;0.67;;;;;;;;5057363;28;29280;-83
2023/12/22 08:51:58;;;;;;;;;1.67;0.67;;;;;;;;5065907;28;28434;-82
2023/12/22 08:54:24;;;;;;;;;1.00;1.00;;;;;;;;5050197;28;28422;-83
2023/12/22 08:56:49;;;;;;;;;0.00;0.00;;;;;;;;5059003;28;29178;-82
2023/12/22 08:59:14;;;;;;;;;0.00;0.00;;;;;;;;5039606;28;29619;-78
2023/12/22 09:01:41;;;;;;;;;1.00;0.00;;;;;;;;5058648;28;28478;-79
2023/12/22 09:04:06;;;;;;;;;1.00;1.00;;;;;;;;5049199;28;28564;-79
2023/12/22 09:06:31;;;;;;;;;1.33;1.33;;;;;;;;5071005;28;28462;-82
2023/12/22 09:08:56;;;;;;;;;5.00;1.00;;;;;;;;5044366;28;28608;-82
2023/12/22 09:11:27;;;;;;;;;0.00;0.00;;;;;;;;5045188;28;28003;-83
2023/12/22 09:13:52;;;;;;;;;2.00;0.00;;;;;;;;5053906;28;28916;-82
2023/12/22 09:16:21;;;;;;;;;0.00;0.00;;;;;;;;5048161;28;28621;-79
2023/12/22 09:18:46;;;;;;;;;2.75;1.75;;;;;;;;5062909;28;28504;-82
2023/12/22 09:21:12;;;;;;;;;3.33;1.00;;;;;;;;5068166;28;28600;-79
2023/12/22 09:23:37;;;;;;;;;2.33;0.67;;;;;;;;5046591;28;28826;-81
2023/12/22 09:26:05;;;;;;;;;1.67;0.67;;;;;;;;5063626;28;28510;-84
2023/12/22 09:28:31;;;;;;;;;0.00;0.00;;;;;;;;5071765;28;28655;-80
2023/12/22 09:30:56;;;;;;;;;2.67;1.33;;;;;;;;5064544;28;28456;-81
2023/12/22 09:33:26;;;;;;;;;1.00;1.00;;;;;;;;5061614;28;28542;-81
2023/12/22 09:35:51;;;;;;;;;2.00;1.33;;;;;;;;5061258;28;29642;-78
2023/12/22 09:38:17;;;;;;;;;6.00;0.33;;;;;;;;5061901;28;29641;-82
2023/12/22 09:40:42;;;;;;;;;1.33;1.33;;;;;;;;5039725;28;28141;-81
2023/12/22 09:43:08;;;;;;;;;0.33;0.33;;;;;;;;5047923;28;28987;-81
2023/12/22 09:45:33;;;;;;;;;3.00;2.00;;;;;;;;5056190;28;28679;-79
2023/12/22 09:48:30;;;;;;;;;;;;;;;;;;;;;
2023/12/22 09:51:00;;;;;;;;;0.75;0.75;;;;;;;;5055292;28;55304;-81
2023/12/22 09:53:26;;;;;;;;;3.67;1.33;;;;;;;;5064657;28;28799;-80
2023/12/22 09:55:55;;;;;;;;;0.67;0.67;;;;;;;;5069656;28;28659;-81
2023/12/22 09:58:21;;;;;;;;;0.00;0.00;;;;;;;;5055357;28;28521;-79
2023/12/22 10:00:48;;;;;;;;;1.00;0.00;;;;;;;;5045822;28;29199;-78
2023/12/22 10:03:15;;;;;;;;;1.00;0.00;;;;;;;;5055979;28;28994;-79
2023/12/22 10:05:41;;;;;;;;;0.00;0.00;;;;;;;;5049562;28;27969;-80
2023/12/22 10:08:10;;;;;;;;;1.00;0.00;;;;;;;;5053381;28;28541;-81
2023/12/22 10:10:35;;;;;;;;;0.00;0.00;;;;;;;;5035303;28;28886;-80
2023/12/22 10:13:03;;;;;;;;;0.00;0.00;;;;;;;;5046538;28;27963;-78
2023/12/22 10:15:29;;;;;;;;;1.00;1.00;;;;;;;;5027225;28;29316;-82
2023/12/22 10:17:55;;;;;;;;;0.00;0.00;;;;;;;;5029418;28;29222;-81
2023/12/22 10:20:22;;;;;;;;;2.00;1.00;;;;;;;;5017953;28;28539;-80
2023/12/22 10:22:48;;;;;;;;;0.67;0.67;;;;;;;;5031548;28;29508;-80
2023/12/22 10:25:19;;;;;;;;;4.00;1.00;;;;;;;;5029450;28;28624;-80
2023/12/22 10:27:45;;;;;;;;;2.00;0.33;;;;;;;;5015089;28;28496;-83
2023/12/22 10:30:12;;;;;;;;;3.00;1.33;;;;;;;;5032754;28;28539;-81
2023/12/22 10:32:43;;;;;;;;;0.25;0.25;;;;;;;;5009342;28;28460;-83
2023/12/22 10:35:12;;;;;;;;;1.50;1.00;;;;;;;;5037642;28;29454;-83
2023/12/22 10:37:37;;;;;;;;;1.75;0.00;;;;;;;;5031998;28;29018;-79
2023/12/22 10:40:08;;;;;;;;;1.00;1.00;;;;;;;;5000900;28;28917;-81
2023/12/22 10:42:33;;;;;;;;;1.25;0.00;;;;;;;;5011443;28;28490;-80
2023/12/22 10:44:58;;;;;;;;;1.00;1.00;;;;;;;;5039405;28;28533;-79
2023/12/22 10:47:24;;;;;;;;;3.00;2.00;;;;;;;;5022548;28;30045;-80
2023/12/22 10:50:01;;;;;;;;;1.00;1.00;;;;;;;;5043676;28;28441;-81
2023/12/22 10:52:26;;;;;;;;;1.25;0.00;;;;;;;;5039478;28;28509;-81
2023/12/22 10:54:51;;;;;;;;;2.67;1.67;;;;;;;;5028660;28;28698;-78
2023/12/22 10:57:17;;;;;;;;;2.67;1.67;;;;;;;;5035813;28;28534;-80
2023/12/22 10:59:49;;;;;;;;;2.00;1.00;;;;;;;;5042525;28;28785;-83
2023/12/22 11:02:18;;;;;;;;;6.33;2.00;;;;;;;;5048330;28;28536;-81
2023/12/22 11:04:57;;;;;;;;;1.33;1.00;;;;;;;;5021583;28;28120;-83
2023/12/22 11:07:23;;;;;;;;;1.33;1.00;;;;;;;;5032377;28;28481;-83
2023/12/22 11:09:54;;;;;;;;;0.00;0.00;;;;;;;;5041924;28;29315;-83
2023/12/22 11:12:20;;;;;;;;;3.00;1.00;;;;;;;;5042126;28;28783;-84
2023/12/22 11:14:50;;;;;;;;;2.00;2.00;;;;;;;;5038813;28;29063;-81
2023/12/22 11:17:18;;;;;;;;;2.00;2.00;;;;;;;;5040422;28;30814;-82
2023/12/22 11:19:49;;;;;;;;;1.00;1.00;;;;;;;;5061621;28;28435;-83
2023/12/22 11:22:16;;;;;;;;;2.25;1.75;;;;;;;;5043137;28;28159;-83
2023/12/22 11:25:05;;;;;;;;;1.00;1.00;;;;;;;;5067028;28;28792;-83
2023/12/22 11:30:25;;;;;;;;;3.00;0.75;;;;;;;;5053430;28;28665;-82
2023/12/22 11:33:15;;;;;;;;;4.33;3.00;;;;;;;;5035595;28;28894;-83
2023/12/22 11:35:41;;;;;;;;;0.00;0.00;;;;;;;;5025734;28;28811;-86
2023/12/22 11:42:03;;;;;;;;;3.00;1.50;;;;;;;;4947150;28;28084;-86
2023/12/22 11:44:29;;;;;;;;;6.33;2.00;;;;;;;;4979678;28;28016;-76
2023/12/22 11:47:04;;;;;;;;;5.00;1.00;;;;;;;;5055213;28;28810;-80
2023/12/22 11:49:36;;;;;;;;;3.00;3.00;;;;;;;;5044458;28;30640;-75
2023/12/22 11:52:15;;;;;;;;;4.00;2.00;;;;;;;;5062687;28;28134;-76
2023/12/22 11:54:51;;;;;;;;;4.33;2.00;;;;;;;;5033536;28;28631;-75
2023/12/22 11:57:31;;;;;;;;;4.67;2.00;;;;;;;;5058723;28;28528;-75
2023/12/22 11:59:57;;;;;;;;;3.33;2.00;;;;;;;;5030763;28;30374;-73
2023/12/22 12:02:22;;;;;;;;;2.67;2.67;;;;;;;;5025963;28;30716;-71
2023/12/22 12:04:48;;;;;;;;;2.67;2.67;;;;;;;;5028097;28;28510;-71
2023/12/22 12:07:32;;;;;;;;;5.00;2.00;;;;;;;;5039739;28;29171;-77
2023/12/22 12:09:57;;;;;;;;;5.00;2.00;;;;;;;;5050396;28;28619;-77
2023/12/22 12:12:24;;;;;;;;;7.33;2.00;;;;;;;;5052839;28;27970;-79
2023/12/22 12:14:52;;;;;;;;;3.67;2.33;;;;;;;;5051684;28;28842;-78
2023/12/22 12:17:19;;;;;;;;;2.00;2.00;;;;;;;;5046060;28;29552;-77
2023/12/22 12:19:45;;;;;;;;;5.67;3.67;;;;;;;;5036128;28;29929;-80
2023/12/22 12:22:14;;;;;;;;;3.00;2.00;;;;;;;;5054422;28;28735;-74
2023/12/22 12:24:40;;;;;;;;;8.00;3.67;;;;;;;;5048149;28;28648;-77
2023/12/22 12:27:06;;;;;;;;;4.00;3.00;;;;;;;;5049335;28;28533;-74
2023/12/22 12:29:34;;;;;;;;;2.33;2.33;;;;;;;;5057796;28;28864;-78
2023/12/22 12:32:04;;;;;;;;;3.00;2.00;;;;;;;;5060539;28;28854;-80
2023/12/22 12:34:29;;;;;;;;;7.00;2.67;;;;;;;;5032541;28;28637;-77
2023/12/22 12:36:55;;;;;;;;;6.33;3.00;;;;;;;;5059741;28;28396;-78
2023/12/22 12:39:22;;;;;;;;;4.00;2.33;;;;;;;;5050947;28;29283;-74
2023/12/22 12:41:52;;;;;;;;;4.75;3.25;;;;;;;;5054212;28;28853;-78
2023/12/22 12:44:18;;;;;;;;;6.33;3.00;;;;;;;;5052476;28;28837;-79
2023/12/22 12:46:43;;;;;;;;;7.33;4.00;;;;;;;;5060008;28;29068;-77
2023/12/22 12:49:14;;;;;;;;;5.00;2.67;;;;;;;;5054935;28;28113;-78
2023/12/22 12:51:43;;;;;;;;;6.50;2.50;;;;;;;;5057635;28;28407;-78
2023/12/22 12:54:09;;;;;;;;;5.00;1.67;;;;;;;;5057049;28;27864;-79
2023/12/22 12:56:38;;;;;;;;;4.67;3.33;;;;;;;;5056823;28;29105;-74
2023/12/22 12:59:06;;;;;;;;;8.33;2.67;;;;;;;;5027491;28;28507;-76
2023/12/22 13:01:39;;;;;;;;;5.00;2.25;;;;;;;;5052233;28;28821;-80
2023/12/22 13:04:05;;;;;;;;;6.67;2.00;;;;;;;;5042968;28;28684;-76
2023/12/22 13:06:30;;;;;;;;;3.33;2.00;;;;;;;;5038735;28;28695;-82
2023/12/22 13:08:55;;;;;;;;;4.67;4.00;;;;;;;;5049070;28;28495;-72
2023/12/22 13:11:22;;;;;;;;;5.00;3.00;;;;;;;;5047113;28;28399;-75
2023/12/22 13:13:47;;;;;;;;;4.33;2.67;;;;;;;;5057292;28;28588;-79
2023/12/22 13:16:13;;;;;;;;;1.00;1.00;;;;;;;;5042044;28;29437;-79
2023/12/22 13:18:38;;;;;;;;;2.00;1.67;;;;;;;;5060315;28;28280;-79
2023/12/22 13:21:04;;;;;;;;;6.33;2.33;;;;;;;;5066363;28;28562;-78
2023/12/22 13:23:32;;;;;;;;;4.00;2.67;;;;;;;;5034274;28;28506;-79
2023/12/22 13:26:04;;;;;;;;;5.00;3.67;;;;;;;;5028845;28;28946;-80
2023/12/22 13:28:30;;;;;;;;;5.00;4.00;;;;;;;;5068415;28;28602;-78
2023/12/22 13:30:55;;;;;;;;;1.00;1.00;;;;;;;;5072053;28;28411;-79
2023/12/22 13:33:21;;;;;;;;;2.00;2.00;;;;;;;;5068757;28;28782;-79
2023/12/22 13:35:47;;;;;;;;;3.00;2.33;;;;;;;;5063752;28;27852;-80
2023/12/22 13:38:12;;;;;;;;;4.33;2.33;;;;;;;;5068283;28;29352;-79
2023/12/22 13:40:38;;;;;;;;;5.00;2.00;;;;;;;;5037105;28;28914;-79
2023/12/22 13:43:03;;;;;;;;;4.67;3.67;;;;;;;;5067607;28;28246;-79
2023/12/22 13:45:30;;;;;;;;;2.33;1.00;;;;;;;;5062979;28;28667;-79
2023/12/22 13:47:56;;;;;;;;;3.33;3.33;;;;;;;;5040974;28;30398;-75
2023/12/22 13:50:24;;;;;;;;;3.67;2.00;;;;;;;;5058076;28;28625;-76
2023/12/22 13:52:50;;;;;;;;;3.00;2.00;;;;;;;;5056647;28;28618;-80
2023/12/22 13:55:17;;;;;;;;;4.33;3.00;;;;;;;;5037759;28;28630;-79
2023/12/22 13:57:43;;;;;;;;;4.00;4.00;;;;;;;;5067438;28;28217;-80
2023/12/22 14:00:21;;;;;;;;;6.67;3.33;;;;;;;;5048011;28;28542;-80
2023/12/22 14:03:07;;;;;;;;;2.00;1.00;;;;;;;;5043656;28;28368;-80
2023/12/22 14:05:34;;;;;;;;;2.00;1.67;;;;;;;;5035744;28;28055;-80
2023/12/22 14:08:03;;;;;;;;;4.67;2.00;;;;;;;;5073996;28;28438;-81
2023/12/22 14:10:28;;;;;;;;;7.00;2.00;;;;;;;;5045371;28;29151;-80
2023/12/22 14:12:54;;;;;;;;;8.67;4.00;;;;;;;;5061883;28;28489;-78
2023/12/22 14:15:19;;;;;;;;;4.00;2.00;;;;;;;;5052845;28;28687;-80
2023/12/22 14:17:45;;;;;;;;;4.00;1.33;;;;;;;;5041819;28;28832;-80
2023/12/22 14:20:11;;;;;;;;;4.00;2.00;;;;;;;;5054629;28;28549;-78
2023/12/22 14:22:37;;;;;;;;;5.00;5.00;;;;;;;;5033029;28;28781;-74
2023/12/22 14:25:03;;;;;;;;;1.00;0.00;;;;;;;;5054946;28;28517;-73
2023/12/22 14:27:28;;;;;;;;;3.67;2.67;;;;;;;;5040590;28;29142;-72
2023/12/22 14:29:53;;;;;;;;;3.00;2.00;;;;;;;;5053480;28;28617;-74
2023/12/22 14:32:19;;;;;;;;;4.00;1.67;;;;;;;;5059775;28;28792;-73
2023/12/22 14:34:45;;;;;;;;;2.00;1.00;;;;;;;;5052827;28;28572;-73
2023/12/22 14:37:10;;;;;;;;;3.00;3.00;;;;;;;;5060538;28;28630;-71
2023/12/22 14:39:35;;;;;;;;;2.67;1.33;;;;;;;;5024449;28;28491;-73
2023/12/22 14:42:02;;;;;;;;;8.00;4.33;;;;;;;;5058224;28;28517;-72
2023/12/22 14:44:28;;;;;;;;;7.33;3.33;;;;;;;;5025992;28;28548;-73
2023/12/22 14:46:53;;;;;;;;;3.67;2.00;;;;;;;;5056704;28;28350;-73
2023/12/22 14:49:19;;;;;;;;;2.67;2.67;;;;;;;;5051387;28;28450;-73
2023/12/22 14:51:46;;;;;;;;;4.00;1.33;;;;;;;;5052492;28;28482;-71